Time;durP1;ratioP1;P1;durP2;ratioP2;P2;SDS_P1;SDS_P2;PMS_P1;PMS_P2;Temp;Humidity;BMP_temperature;BMP_pressure;BME280_temperature;BME280_humidity;BME280_pressure;Samples;Min_cycle;Max_cycle;Signal;HPM_P1;HPM_P2
2022/04/22 00:01:29;;;;;;;3.10;2.15;;;;;;;5.22;60.89;101710.75;5026260;28;20092;-78
2022/04/22 00:03:55;;;;;;;2.58;2.03;;;;;;;5.21;60.76;101715.34;5048926;28;20495;-77
2022/04/22 00:06:20;;;;;;;5.32;2.15;;;;;;;5.22;60.85;101710.75;5035729;28;20124;-77
2022/04/22 00:08:46;;;;;;;4.40;2.15;;;;;;;5.22;61.11;101713.47;5031117;28;20499;-78
2022/04/22 00:11:30;;;;;;;6.97;2.63;;;;;;;5.23;61.16;101712.41;5045801;28;20037;-77
2022/04/22 00:13:57;;;;;;;3.10;2.00;;;;;;;5.16;60.89;101707.00;5049559;28;20073;-76
2022/04/22 00:16:27;;;;;;;3.72;1.98;;;;;;;5.09;60.95;101706.22;5030894;28;20075;-77
2022/04/22 00:18:54;;;;;;;4.85;2.22;;;;;;;5.03;61.63;101710.66;5027988;28;20063;-76
2022/04/22 00:21:20;;;;;;;4.07;2.05;;;;;;;4.98;61.56;101705.00;5029733;28;20439;-77
2022/04/22 00:23:46;;;;;;;3.80;2.00;;;;;;;4.94;61.77;101698.34;5031671;28;20492;-77
2022/04/22 00:26:12;;;;;;;5.43;2.30;;;;;;;4.90;62.05;101691.69;5036643;28;20112;-75
2022/04/22 00:28:37;;;;;;;4.32;1.85;;;;;;;4.87;62.23;101692.13;5048622;28;20136;-78
2022/04/22 00:31:03;;;;;;;4.50;2.70;;;;;;;4.81;62.26;101698.41;5036115;28;20124;-76
2022/04/22 00:33:29;;;;;;;2.88;2.50;;;;;;;4.74;62.86;101694.91;5045849;28;20037;-76
2022/04/22 00:35:55;;;;;;;3.00;1.80;;;;;;;4.72;62.84;101695.13;5034526;28;20037;-77
2022/04/22 00:38:20;;;;;;;2.50;2.05;;;;;;;4.73;62.47;101701.38;5021121;28;20061;-77
2022/04/22 00:40:46;;;;;;;4.07;1.83;;;;;;;4.68;62.40;101693.84;5032025;28;20041;-77
2022/04/22 00:43:25;;;;;;;3.60;2.30;;;;;;;4.66;62.72;101695.13;5030618;28;20041;-77
2022/04/22 00:45:52;;;;;;;6.50;2.40;;;;;;;4.65;62.82;101693.47;5041399;28;20056;-77
2022/04/22 00:48:19;;;;;;;7.65;2.08;;;;;;;4.58;63.03;101687.25;5030696;28;20062;-77
2022/04/22 00:50:45;;;;;;;3.10;1.90;;;;;;;4.53;63.44;101687.91;5018454;28;20069;-77
2022/04/22 00:53:11;;;;;;;4.20;2.47;;;;;;;4.52;63.65;101687.06;5029730;28;20069;-77
2022/04/22 00:55:42;;;;;;;2.60;1.90;;;;;;;4.49;63.09;101684.75;5054312;28;20041;-77
2022/04/22 00:58:09;;;;;;;4.65;1.90;;;;;;;4.49;63.65;101681.19;5011492;28;20042;-77
2022/04/22 01:00:35;;;;;;;3.38;1.80;;;;;;;4.50;63.76;101686.41;5011052;28;20038;-77
2022/04/22 01:03:01;;;;;;;5.72;2.13;;;;;;;4.57;63.98;101682.84;5055987;28;20048;-77
2022/04/22 01:11:00;;;;;;;5.03;1.98;;;;;;;4.47;63.56;101675.97;5011436;28;20095;-77
2022/04/22 01:13:26;;;;;;;3.75;1.80;;;;;;;4.47;63.96;101670.53;5028765;28;20051;-77
2022/04/22 01:15:52;;;;;;;3.10;1.90;;;;;;;4.47;63.80;101681.41;5019368;28;20485;-76
2022/04/22 01:18:17;;;;;;;2.80;1.73;;;;;;;4.49;63.69;101684.75;5051850;28;20039;-76
2022/04/22 01:20:43;;;;;;;5.53;2.20;;;;;;;4.48;63.97;101677.66;5015919;28;20049;-76
2022/04/22 01:23:09;;;;;;;3.75;2.22;;;;;;;4.47;63.80;101677.88;5031384;28;20037;-76
2022/04/22 01:25:35;;;;;;;4.72;1.90;;;;;;;4.50;63.74;101683.69;5038597;28;20037;-75
2022/04/22 01:28:01;;;;;;;3.03;1.75;;;;;;;4.49;64.09;101673.88;5033623;28;20045;-76
2022/04/22 01:30:27;;;;;;;2.25;1.60;;;;;;;4.49;63.88;101673.03;5028617;28;20061;-76
2022/04/22 01:32:56;;;;;;;3.05;2.00;;;;;;;4.50;63.89;101674.72;5011846;28;20034;-77
2022/04/22 01:35:24;;;;;;;5.15;2.00;;;;;;;4.53;63.59;101672.41;5023630;28;20068;-78
2022/04/22 01:37:50;;;;;;;5.05;1.83;;;;;;;4.51;63.83;101671.81;5044059;28;20048;-78
2022/04/22 01:40:16;;;;;;;5.30;2.17;;;;;;;4.52;64.10;101678.91;5025771;28;20584;-77
2022/04/22 01:42:42;;;;;;;5.30;2.13;;;;;;;4.54;64.00;101665.94;5039952;28;20521;-77
2022/04/22 01:45:09;;;;;;;5.82;2.58;;;;;;;4.49;63.84;101667.59;5031269;28;20061;-77
2022/04/22 01:47:35;;;;;;;4.18;2.08;;;;;;;4.48;63.37;101672.22;5014115;28;20417;-76
2022/04/22 01:50:01;;;;;;;2.97;1.67;;;;;;;4.46;64.08;101668.88;5029024;28;20034;-77
2022/04/22 01:52:26;;;;;;;5.40;1.80;;;;;;;4.46;63.94;101677.03;5018828;28;20060;-76
2022/04/22 01:54:55;;;;;;;4.15;1.90;;;;;;;4.44;63.85;101670.97;5041090;28;20044;-77
2022/04/22 01:57:21;;;;;;;7.03;2.08;;;;;;;4.41;63.48;101671.41;5011336;28;20148;-77
2022/04/22 01:59:48;;;;;;;6.30;2.00;;;;;;;4.37;63.94;101669.34;5014479;28;20124;-77
2022/04/22 02:02:17;;;;;;;3.17;1.85;;;;;;;4.34;63.90;101669.75;5055222;28;20409;-77
2022/04/22 02:04:43;;;;;;;;;;;;;;;4.32;64.10;101678.13;5013585;28;20129;-77
2022/04/22 02:07:09;;;;;;;3.78;2.10;;;;;;;4.36;64.22;101667.69;5026869;28;20004;-77
2022/04/22 02:09:36;;;;;;;3.70;1.98;;;;;;;4.40;64.63;101677.91;5012716;28;20038;-77
2022/04/22 02:12:02;;;;;;;2.85;1.70;;;;;;;4.41;64.08;101676.84;5041386;28;20037;-77
2022/04/22 02:14:27;;;;;;;3.15;2.38;;;;;;;4.33;64.40;101668.91;5049180;28;20036;-77
2022/04/22 02:16:53;;;;;;;3.92;1.70;;;;;;;4.35;64.50;101666.84;5032778;28;20045;-77
2022/04/22 02:19:19;;;;;;;3.28;1.85;;;;;;;4.36;64.24;101673.13;5033038;28;20042;-77
2022/04/22 02:21:45;;;;;;;3.28;2.00;;;;;;;4.35;64.68;101671.44;5044589;28;20485;-77
2022/04/22 02:24:11;;;;;;;7.75;2.20;;;;;;;4.36;64.43;101663.09;5063182;28;20037;-77
2022/04/22 02:29:21;;;;;;;3.97;2.10;;;;;;;4.28;64.66;101660.59;5043160;28;20057;-77
2022/04/22 02:31:48;;;;;;;2.35;1.90;;;;;;;4.23;64.37;101657.69;5029508;28;20033;-77
2022/04/22 02:34:14;;;;;;;3.60;2.13;;;;;;;4.20;64.57;101660.84;5029694;28;20033;-77
2022/04/22 02:36:41;;;;;;;2.53;1.52;;;;;;;4.26;64.84;101656.41;5034189;28;20459;-77
2022/04/22 02:39:07;;;;;;;3.03;1.95;;;;;;;4.21;64.83;101657.91;5029717;28;20087;-77
2022/04/22 02:47:01;;;;;;;2.40;1.70;;;;;;;4.15;65.54;101652.47;5040102;28;20037;-77
2022/04/22 02:49:26;;;;;;;2.85;2.10;;;;;;;4.19;64.80;101653.75;5041153;28;20121;-76
2022/04/22 02:51:52;;;;;;;4.70;2.13;;;;;;;4.27;65.02;101658.91;5026079;28;20539;-77
2022/04/22 02:54:18;;;;;;;5.07;1.98;;;;;;;4.40;64.94;101653.44;5028402;28;20435;-76
2022/04/22 02:56:43;;;;;;;6.50;2.08;;;;;;;4.61;64.01;101659.63;5034387;28;20045;-76
2022/04/22 02:59:09;;;;;;;5.30;1.90;;;;;;;4.59;64.12;101667.16;5025961;28;20041;-76
2022/04/22 03:01:35;;;;;;;3.15;2.47;;;;;;;4.47;63.76;101656.94;5014270;28;20034;-76
2022/04/22 03:04:00;;;;;;;4.03;1.85;;;;;;;4.36;64.38;101659.53;5048619;28;20448;-76
2022/04/22 03:06:26;;;;;;;4.80;1.80;;;;;;;4.31;64.46;101660.16;5036034;28;20061;-78
2022/04/22 03:08:52;;;;;;;7.05;2.08;;;;;;;4.51;64.38;101668.22;5034144;28;20416;-75
2022/04/22 03:11:21;;;;;;;5.10;1.85;;;;;;;4.84;63.65;101663.44;5034352;28;20088;-75
2022/04/22 03:13:49;;;;;;;1.77;1.58;;;;;;;5.26;63.08;101662.97;5032519;28;20064;-77
2022/04/22 03:16:42;;;;;;;5.17;2.00;;;;;;;5.70;61.96;101654.63;5027305;28;20044;-78
2022/04/22 03:19:08;;;;;;;3.22;1.70;;;;;;;5.91;60.04;101656.16;5054017;28;20051;-77
2022/04/22 03:21:34;;;;;;;5.30;2.42;;;;;;;6.10;59.54;101654.28;5034056;28;20037;-75
2022/04/22 03:24:00;;;;;;;2.38;1.70;;;;;;;6.39;59.20;101652.66;5032822;28;20041;-77
2022/04/22 03:26:25;;;;;;;4.53;2.00;;;;;;;6.67;58.31;101646.63;5033168;28;20135;-77
2022/04/22 03:28:52;;;;;;;4.88;1.90;;;;;;;6.97;57.42;101651.25;5014878;28;20133;-77
2022/04/22 03:31:19;;;;;;;6.35;2.20;;;;;;;7.16;56.87;101659.16;5038910;28;20569;-77
2022/04/22 03:33:45;;;;;;;4.47;1.95;;;;;;;7.48;56.33;101664.31;5061678;28;20069;-77
2022/04/22 03:36:12;;;;;;;6.50;2.55;;;;;;;7.76;55.54;101656.25;5031389;28;20145;-77
2022/04/22 03:38:38;;;;;;;3.58;2.15;;;;;;;8.15;54.30;101657.41;5031184;28;20051;-78
2022/04/22 03:41:03;;;;;;;6.45;1.98;;;;;;;8.51;52.74;101660.13;5033376;28;20079;-76
2022/04/22 03:43:29;;;;;;;6.55;2.38;;;;;;;8.97;51.78;101654.44;5032404;28;20499;-77
2022/04/22 03:45:55;;;;;;;5.00;2.00;;;;;;;9.39;50.42;101650.53;5034662;28;20045;-77
2022/04/22 03:48:20;;;;;;;5.13;2.08;;;;;;;9.78;50.01;101651.41;5033663;28;20052;-78
2022/04/22 03:50:46;;;;;;;2.60;1.75;;;;;;;10.11;48.81;101650.53;5060966;28;20036;-78
2022/04/22 03:53:12;;;;;;;2.60;1.58;;;;;;;10.12;48.09;101650.25;5032586;28;20061;-78
2022/04/22 03:55:42;;;;;;;3.13;2.10;;;;;;;10.15;48.00;101647.00;5030924;28;20044;-78
2022/04/22 03:58:16;;;;;;;8.55;2.78;;;;;;;10.25;47.89;101651.84;5053165;28;20522;-77
2022/04/22 04:00:44;;;;;;;11.43;2.40;;;;;;;10.14;47.66;101652.75;5027676;28;20032;-77
2022/04/22 04:03:12;;;;;;;4.20;2.05;;;;;;;10.07;48.28;101652.13;5039322;28;20044;-78
2022/04/22 04:05:39;;;;;;;7.55;2.47;;;;;;;10.39;47.38;101649.53;5052066;28;20041;-78
2022/04/22 04:08:05;;;;;;;8.07;2.03;;;;;;;10.60;47.32;101651.47;5033878;28;20045;-77
2022/04/22 04:16:01;;;;;;;8.13;3.08;;;;;;;11.69;44.24;101647.53;5030540;28;20493;-78
2022/04/22 04:18:32;;;;;;;6.63;3.00;;;;;;;11.80;44.00;101645.72;5032655;28;20041;-78
2022/04/22 04:23:43;;;;;;;8.85;2.55;;;;;;;11.86;44.04;101641.91;5024324;28;20034;-76
2022/04/22 04:26:09;;;;;;;8.10;2.63;;;;;;;12.09;43.67;101641.50;5027643;28;20094;-78
2022/04/22 04:28:35;;;;;;;8.13;2.72;;;;;;;12.47;42.70;101648.56;5033078;28;20500;-78
2022/04/22 04:31:01;;;;;;;7.75;2.30;;;;;;;12.77;42.18;101645.09;5041389;28;20134;-77
2022/04/22 04:33:29;;;;;;;12.23;3.10;;;;;;;13.25;41.70;101640.25;5054603;28;20495;-77
2022/04/22 04:35:55;;;;;;;10.55;2.53;;;;;;;13.72;40.56;101630.88;5051338;28;20122;-77
2022/04/22 04:38:21;;;;;;;14.18;3.10;;;;;;;14.03;39.96;101629.69;5043365;28;20069;-77
2022/04/22 04:40:47;;;;;;;11.73;2.65;;;;;;;14.38;39.26;101633.41;5047802;28;20475;-77
2022/04/22 04:43:13;;;;;;;10.60;2.65;;;;;;;14.52;38.60;101634.50;5031908;28;20058;-78
2022/04/22 04:45:38;;;;;;;5.90;2.22;;;;;;;14.76;38.65;101641.03;5036065;28;20043;-79
2022/04/22 04:48:05;;;;;;;7.53;2.60;;;;;;;14.85;37.84;101638.47;5013827;28;20136;-78
2022/04/22 04:50:31;;;;;;;7.20;3.10;;;;;;;14.78;37.68;101636.03;5012339;28;20064;-78
2022/04/22 04:52:57;;;;;;;11.80;3.25;;;;;;;15.08;37.23;101632.22;5013446;28;20425;-78
2022/04/22 04:55:23;;;;;;;9.60;2.88;;;;;;;15.31;36.75;101629.88;5031970;28;20522;-78
2022/04/22 04:57:48;;;;;;;8.05;2.47;;;;;;;15.35;36.74;101629.00;5031787;28;20049;-78
2022/04/22 05:00:15;;;;;;;7.53;2.55;;;;;;;15.43;36.43;101632.25;5033000;28;20051;-78
2022/04/22 05:02:41;;;;;;;10.77;2.95;;;;;;;15.63;36.27;101637.66;5050791;28;20075;-78
2022/04/22 05:05:07;;;;;;;8.88;2.75;;;;;;;16.03;35.65;101627.28;5035030;28;20050;-77
2022/04/22 05:07:34;;;;;;;11.25;3.63;;;;;;;16.09;35.40;101628.88;5024991;28;20484;-77
2022/04/22 05:09:59;;;;;;;11.02;3.10;;;;;;;16.42;34.70;101627.91;5022020;28;20038;-77
2022/04/22 05:12:25;;;;;;;10.07;3.97;;;;;;;16.78;34.14;101635.78;5029578;28;20388;-77
2022/04/22 05:14:51;;;;;;;8.45;2.83;;;;;;;16.92;34.04;101625.59;5011281;28;20124;-75
2022/04/22 05:17:17;;;;;;;14.70;3.08;;;;;;;16.98;34.16;101627.16;5024420;28;20037;-77
2022/04/22 05:19:43;;;;;;;7.03;3.03;;;;;;;17.14;33.64;101623.03;5026810;28;20044;-77
2022/04/22 05:22:08;;;;;;;6.97;3.05;;;;;;;17.34;33.41;101627.44;5028079;28;20108;-77
2022/04/22 05:24:37;;;;;;;7.25;2.83;;;;;;;17.62;32.69;101627.53;5023489;28;20042;-77
2022/04/22 05:27:04;;;;;;;;;;;;;;;17.91;32.51;101625.38;5011675;28;20033;-77
2022/04/22 05:34:57;;;;;;;10.18;2.83;;;;;;;18.44;31.21;101618.50;5038503;28;20033;-76
2022/04/22 05:37:23;;;;;;;4.95;2.45;;;;;;;18.69;30.67;101612.38;5051416;28;20045;-75
2022/04/22 05:39:49;;;;;;;5.72;2.70;;;;;;;18.94;30.80;101609.03;5050980;28;20040;-76
2022/04/22 05:42:15;;;;;;;8.45;2.72;;;;;;;19.17;30.38;101611.84;5033360;28;20132;-76
2022/04/22 05:44:40;;;;;;;7.60;3.20;;;;;;;19.37;30.18;101608.53;5034984;28;20549;-77
2022/04/22 05:47:07;;;;;;;4.63;2.72;;;;;;;19.41;29.86;101612.34;5013552;28;20136;-77
2022/04/22 05:49:32;;;;;;;7.97;2.65;;;;;;;19.47;30.02;101607.47;5013536;28;20409;-76
2022/04/22 05:51:58;;;;;;;4.03;2.85;;;;;;;19.31;29.96;101601.47;5038648;28;20511;-77
2022/04/22 05:54:24;;;;;;;14.57;3.90;;;;;;;19.53;29.32;101601.44;5029744;28;20412;-77
2022/04/22 05:56:49;;;;;;;14.38;3.08;;;;;;;19.80;29.56;101603.28;5030950;28;20045;-76
2022/04/22 05:59:15;;;;;;;6.45;2.72;;;;;;;20.03;28.92;101601.25;5028999;28;20041;-76
2022/04/22 06:01:40;;;;;;;6.20;2.63;;;;;;;20.02;28.92;101596.81;5027409;28;20083;-76
2022/04/22 06:04:06;;;;;;;10.68;3.17;;;;;;;19.89;29.02;101606.09;5050752;28;20430;-76
2022/04/22 06:06:31;;;;;;;7.00;3.13;;;;;;;20.05;29.22;101598.97;5041252;28;20041;-76
2022/04/22 06:11:41;;;;;;;10.85;2.95;;;;;;;20.51;28.22;101606.03;5030933;28;20060;-75
2022/04/22 06:14:09;;;;;;;6.57;2.65;;;;;;;20.70;28.05;101598.19;5030773;28;20411;-76
2022/04/22 06:16:36;;;;;;;9.30;3.53;;;;;;;20.90;27.95;101601.47;5034357;28;20055;-76
2022/04/22 06:19:02;;;;;;;6.50;3.17;;;;;;;21.15;27.92;101599.81;5050549;28;20595;-76
2022/04/22 06:21:29;;;;;;;9.10;3.17;;;;;;;21.39;27.68;101599.34;5049804;28;20120;-76
2022/04/22 06:23:54;;;;;;;7.15;2.78;;;;;;;21.35;27.63;101608.41;5049448;28;20045;-75
2022/04/22 06:26:20;;;;;;;7.53;2.80;;;;;;;21.27;27.22;101594.44;5049438;28;20071;-77
2022/04/22 06:28:45;;;;;;;8.85;3.08;;;;;;;21.61;27.25;101593.53;5036230;28;20061;-75
2022/04/22 06:31:12;;;;;;;8.43;2.75;;;;;;;21.81;26.84;101601.19;5031052;28;20038;-75
2022/04/22 06:33:38;;;;;;;10.13;2.85;;;;;;;22.08;26.31;101596.38;5030609;28;20068;-76
2022/04/22 06:36:07;;;;;;;10.82;3.40;;;;;;;22.24;27.11;101601.06;5030862;28;20041;-76
2022/04/22 06:38:34;;;;;;;9.75;3.58;;;;;;;22.19;26.26;101592.84;5032740;28;20045;-76
2022/04/22 06:46:28;;;;;;;7.55;3.10;;;;;;;22.84;25.32;101585.88;5054436;28;20033;-76
2022/04/22 06:48:54;;;;;;;13.25;3.50;;;;;;;22.74;26.37;101579.84;5052305;28;20438;-76
2022/04/22 06:51:22;;;;;;;12.65;2.75;;;;;;;23.00;25.49;101586.06;5036898;28;20041;-76
2022/04/22 06:53:50;;;;;;;11.85;3.00;;;;;;;23.14;25.60;101592.22;5054200;28;20554;-76
2022/04/22 06:56:22;;;;;;;8.40;2.80;;;;;;;23.12;25.27;101585.31;5036066;28;20079;-76
2022/04/22 06:58:49;;;;;;;10.07;2.65;;;;;;;23.35;25.11;101589.38;5054023;28;20439;-76
2022/04/22 07:01:14;;;;;;;13.98;3.25;;;;;;;23.48;24.99;101590.25;5054260;28;20584;-76
2022/04/22 07:03:40;;;;;;;9.60;3.20;;;;;;;23.60;24.82;101583.88;5054106;28;20546;-76
2022/04/22 07:06:06;;;;;;;11.30;3.00;;;;;;;23.50;25.11;101579.50;5050011;28;20117;-75
2022/04/22 07:08:31;;;;;;;16.40;2.80;;;;;;;23.39;24.76;101590.31;5032923;28;20076;-75
2022/04/22 07:11:02;;;;;;;10.33;3.07;;;;;;;23.25;24.50;101575.78;5034274;28;20069;-75
2022/04/22 07:13:28;;;;;;;10.93;2.92;;;;;;;23.38;25.30;101583.06;5032921;28;20037;-77
2022/04/22 07:15:54;;;;;;;9.50;2.97;;;;;;;23.61;25.10;101575.13;5034161;28;20048;-76
2022/04/22 07:18:19;;;;;;;8.03;2.77;;;;;;;22.75;25.25;101573.91;5049145;28;20041;-75
2022/04/22 07:20:45;;;;;;;9.57;2.73;;;;;;;22.39;26.19;101582.88;5034209;28;20565;-75
2022/04/22 07:23:12;;;;;;;8.88;3.00;;;;;;;22.40;25.91;101573.34;5036086;28;20033;-76
2022/04/22 07:25:38;;;;;;;6.95;2.40;;;;;;;22.09;26.21;101572.84;5053903;28;20044;-76
2022/04/22 07:28:04;;;;;;;10.65;2.95;;;;;;;22.20;26.75;101574.09;5053870;28;20049;-76
2022/04/22 07:30:30;;;;;;;2.38;1.98;;;;;;;22.04;26.26;101567.41;5043327;28;20071;-76
2022/04/22 07:32:56;;;;;;;3.15;2.08;;;;;;;21.80;27.41;101571.63;5048996;28;20091;-76
2022/04/22 07:35:22;;;;;;;5.30;2.40;;;;;;;22.08;27.16;101574.84;5051667;28;20041;-75
2022/04/22 07:37:50;;;;;;;9.13;3.10;;;;;;;22.70;26.13;101579.69;5033502;28;20052;-76
2022/04/22 07:40:19;;;;;;;7.35;2.55;;;;;;;23.22;25.89;101578.47;5032288;28;20033;-75
2022/04/22 07:48:26;;;;;;;7.25;2.60;;;;;;;23.53;25.05;101573.22;5052308;28;20090;-75
2022/04/22 07:50:54;;;;;;;6.75;1.98;;;;;;;23.36;24.71;101577.00;5040637;28;20034;-75
2022/04/22 07:53:21;;;;;;;4.75;2.08;;;;;;;22.81;25.37;101568.94;5033356;28;20459;-76
2022/04/22 07:55:48;;;;;;;6.07;2.55;;;;;;;23.04;25.72;101567.44;5033144;28;20041;-75
2022/04/22 07:58:15;;;;;;;7.50;2.22;;;;;;;22.21;25.96;101572.94;5015855;28;20091;-76
2022/04/22 08:00:41;;;;;;;7.30;2.58;;;;;;;22.76;26.34;101560.75;5025981;28;20447;-76
2022/04/22 08:03:08;;;;;;;4.85;1.67;;;;;;;23.52;24.92;101554.75;5033054;28;20044;-77
2022/04/22 08:05:34;;;;;;;3.83;2.25;;;;;;;23.64;24.35;101559.63;5032963;28;20078;-76
2022/04/22 08:08:00;;;;;;;4.57;2.22;;;;;;;23.80;25.11;101562.56;5031888;28;20076;-76
2022/04/22 08:10:25;;;;;;;2.77;1.93;;;;;;;24.60;24.11;101557.16;5031791;28;20073;-79
2022/04/22 08:12:51;;;;;;;8.60;2.73;;;;;;;25.22;23.99;101553.81;5031609;28;20132;-79
2022/04/22 08:15:19;;;;;;;5.27;2.70;;;;;;;24.89;22.94;101556.84;5032122;28;20492;-79
2022/04/22 08:17:45;;;;;;;6.40;2.60;;;;;;;23.92;23.50;101545.72;5032886;28;20037;-88
2022/04/22 08:20:12;;;;;;;9.93;2.47;;;;;;;23.59;24.40;101554.22;5035128;28;20037;-86
2022/04/22 08:22:38;;;;;;;6.82;2.47;;;;;;;24.25;23.47;101554.84;5027785;28;20451;-83
2022/04/22 08:25:04;;;;;;;4.43;2.25;;;;;;;24.63;23.23;101550.81;5072613;28;20063;-88
2022/04/22 08:27:30;;;;;;;3.75;2.05;;;;;;;24.61;23.91;101550.38;5059688;28;20048;-87
2022/04/22 08:29:56;;;;;;;3.55;2.15;;;;;;;24.44;23.93;101547.84;5038478;28;20543;-86
2022/04/22 08:32:22;;;;;;;2.83;2.35;;;;;;;24.65;23.11;101543.72;5038441;28;20037;-88
2022/04/22 08:34:47;;;;;;;5.47;2.50;;;;;;;23.95;24.46;101545.88;5034521;28;20049;-87
2022/04/22 08:37:13;;;;;;;2.78;2.30;;;;;;;23.89;23.96;101540.81;5053095;28;20484;-86
2022/04/22 08:39:39;;;;;;;4.43;2.42;;;;;;;24.16;23.44;101539.31;5052730;28;20507;-87
2022/04/22 08:42:05;;;;;;;6.25;2.00;;;;;;;24.40;23.94;101538.50;5030272;28;20045;-86
2022/04/22 08:44:36;;;;;;;8.80;2.50;;;;;;;25.23;23.08;101535.78;5031244;28;20127;-87
2022/04/22 08:49:59;;;;;;;3.10;2.10;;;;;;;24.04;23.25;101534.53;5038904;28;20129;-88
2022/04/22 08:52:33;;;;;;;3.60;1.85;;;;;;;23.69;24.04;101532.16;5023172;28;20045;-86
2022/04/22 08:55:01;;;;;;;2.85;1.98;;;;;;;24.29;23.31;101527.75;5038105;28;20229;-85
2022/04/22 08:57:28;;;;;;;2.40;1.60;;;;;;;24.60;22.89;101521.50;5016803;28;20470;-85
2022/04/22 08:59:59;;;;;;;1.63;1.48;;;;;;;25.20;21.92;101530.06;5030983;28;20397;-85
2022/04/22 09:02:25;;;;;;;1.88;1.10;;;;;;;25.58;22.26;101526.69;5031198;28;20037;-84
2022/04/22 09:04:50;;;;;;;2.47;1.40;;;;;;;25.70;21.42;101517.38;5033841;28;20480;-85
2022/04/22 09:07:18;;;;;;;3.72;1.10;;;;;;;26.04;21.27;101525.06;5034852;28;20056;-85
2022/04/22 09:09:49;;;;;;;1.85;1.40;;;;;;;26.32;20.53;101516.47;5031820;28;20049;-85
2022/04/22 09:12:19;;;;;;;1.38;1.27;;;;;;;26.14;20.71;101520.84;5032700;28;20045;-86
2022/04/22 09:14:45;;;;;;;5.97;1.25;;;;;;;26.35;20.08;101514.94;5031233;28;20049;-85
2022/04/22 09:17:16;;;;;;;1.92;0.82;;;;;;;26.11;19.74;101519.59;5034485;28;20136;-85
2022/04/22 09:19:44;;;;;;;2.42;0.88;;;;;;;25.36;20.93;101516.06;5017774;28;20076;-84
2022/04/22 09:22:10;;;;;;;1.20;1.00;;;;;;;24.49;21.30;101509.13;5033273;28;20530;-85
2022/04/22 09:24:53;;;;;;;1.27;1.10;;;;;;;22.59;22.85;101514.13;5031683;28;20049;-85
2022/04/22 09:27:19;;;;;;;2.47;1.50;;;;;;;21.41;24.49;101510.47;5030853;28;20038;-85
2022/04/22 09:29:53;;;;;;;2.00;1.45;;;;;;;20.34;26.06;101511.16;5031580;28;20049;-85
2022/04/22 09:32:31;;;;;;;8.43;1.70;;;;;;;19.55;27.25;101501.75;5031782;28;20504;-86
2022/04/22 09:35:09;;;;;;;1.88;1.23;;;;;;;18.89;28.10;101506.22;5030479;28;20068;-86
2022/04/22 09:43:31;;;;;;;3.13;1.27;;;;;;;17.08;30.36;101507.78;5031293;28;20551;-85
2022/04/22 09:45:56;;;;;;;5.28;1.35;;;;;;;16.87;30.71;101496.22;5031055;28;20393;-85
2022/04/22 09:48:22;;;;;;;4.22;1.80;;;;;;;16.72;31.77;101503.97;5031643;28;20068;-87
2022/04/22 09:50:55;;;;;;;7.53;1.50;;;;;;;16.55;30.96;101505.28;5030190;28;20049;-86
2022/04/22 09:53:34;;;;;;;1.98;1.48;;;;;;;16.51;31.72;101497.88;5013819;28;20543;-87
2022/04/22 09:56:08;;;;;;;3.67;1.60;;;;;;;16.57;31.45;101497.50;5030895;28;20054;-86
2022/04/22 09:58:33;;;;;;;1.83;1.52;;;;;;;16.58;31.64;101501.91;5013841;28;20044;-86
2022/04/22 10:01:01;;;;;;;4.25;1.50;;;;;;;16.58;31.08;101499.13;5031440;28;20120;-85
2022/04/22 10:03:31;;;;;;;3.75;1.85;;;;;;;16.64;31.02;101499.03;5030199;28;20052;-86
2022/04/22 10:05:58;;;;;;;3.10;1.80;;;;;;;16.63;31.35;101495.44;5013523;28;20079;-86
2022/04/22 10:08:25;;;;;;;3.63;1.90;;;;;;;16.50;31.00;101494.28;5031095;28;20075;-86
2022/04/22 10:10:53;;;;;;;4.78;1.92;;;;;;;16.43;31.53;101502.13;5030817;28;20037;-86
2022/04/22 10:13:23;;;;;;;6.18;1.90;;;;;;;16.42;31.45;101494.94;5029072;28;20037;-86
2022/04/22 10:15:50;;;;;;;6.70;1.70;;;;;;;16.34;31.97;101495.63;5030013;28;20041;-86
2022/04/22 10:18:16;;;;;;;3.33;1.92;;;;;;;16.33;32.03;101485.69;5030864;28;20518;-86
2022/04/22 10:20:45;;;;;;;2.72;1.90;;;;;;;16.34;32.61;101481.78;5029983;28;20041;-85
2022/04/22 10:23:10;;;;;;;3.17;2.08;;;;;;;16.37;32.51;101483.13;5023790;28;20049;-85
2022/04/22 10:25:36;;;;;;;5.47;2.30;;;;;;;16.43;32.19;101488.28;5024437;28;20041;-87
2022/04/22 10:28:05;;;;;;;3.55;1.83;;;;;;;16.42;32.39;101481.09;5028494;28;20558;-86
2022/04/22 10:30:31;;;;;;;5.25;1.67;;;;;;;16.38;32.11;101474.50;5010200;28;20492;-86
2022/04/22 10:32:57;;;;;;;6.07;2.80;;;;;;;16.33;32.17;101480.13;4993337;28;20463;-86
2022/04/22 10:35:24;;;;;;;6.97;2.30;;;;;;;16.28;31.88;101474.66;5011194;28;20562;-86
2022/04/22 10:37:51;;;;;;;4.35;2.28;;;;;;;16.05;31.90;101472.78;5009783;28;20148;-86
2022/04/22 10:40:18;;;;;;;3.75;2.40;;;;;;;15.88;32.91;101468.56;5011735;28;20418;-86
2022/04/22 10:42:45;;;;;;;5.35;2.45;;;;;;;15.85;32.45;101469.16;5008513;28;20130;-86
2022/04/22 10:47:56;;;;;;;5.38;2.75;;;;;;;15.79;33.47;101464.78;5010564;28;20044;-85
2022/04/22 10:50:30;;;;;;;4.32;2.65;;;;;;;15.80;33.60;101455.41;5010552;28;20050;-85
2022/04/22 10:53:02;;;;;;;5.57;2.95;;;;;;;15.78;32.90;101448.47;5009737;28;20042;-84
2022/04/22 10:55:39;;;;;;;4.70;2.38;;;;;;;15.78;33.53;101440.19;5010860;28;20073;-84
2022/04/22 10:58:14;;;;;;;3.92;2.70;;;;;;;15.78;33.34;101446.53;5009614;28;20045;-84
2022/04/22 11:00:44;;;;;;;4.53;2.20;;;;;;;15.78;33.49;101432.69;5010659;28;20111;-84
2022/04/22 11:03:19;;;;;;;4.40;1.63;;;;;;;15.81;34.08;101434.91;5010462;28;20046;-84
2022/04/22 11:05:50;;;;;;;4.07;1.90;;;;;;;15.89;34.04;101430.63;5025715;28;20416;-84
2022/04/22 11:08:20;;;;;;;3.28;2.05;;;;;;;15.85;34.10;101427.63;5010814;28;20042;-84
2022/04/22 11:10:48;;;;;;;8.82;2.40;;;;;;;15.88;34.19;101420.69;5011126;28;20038;-85
2022/04/22 11:13:38;;;;;;;8.38;2.28;;;;;;;15.97;33.82;101416.16;5042597;28;20042;-84
2022/04/22 11:16:32;;;;;;;7.47;2.40;;;;;;;16.01;33.61;101413.59;5010872;28;20623;-84
2022/04/22 11:19:17;;;;;;;11.20;2.10;;;;;;;16.05;33.93;101418.22;5028068;28;20064;-84
2022/04/22 11:21:44;;;;;;;3.90;2.00;;;;;;;16.09;33.58;101415.69;5026473;28;20046;-83
2022/04/22 11:24:15;;;;;;;2.72;1.80;;;;;;;16.12;33.97;101407.59;5021625;28;20136;-82
2022/04/22 11:26:42;;;;;;;7.47;2.65;;;;;;;16.10;33.77;101414.56;5031800;28;20095;-81
2022/04/22 11:29:10;;;;;;;2.42;1.98;;;;;;;16.05;33.80;101411.88;5027011;28;20501;-85
2022/04/22 11:31:36;;;;;;;7.40;1.92;;;;;;;16.03;33.40;101414.13;5013214;28;20533;-86
2022/04/22 11:34:07;;;;;;;3.92;1.45;;;;;;;16.02;33.87;101407.75;5023207;28;20085;-86
2022/04/22 11:36:44;;;;;;;3.80;1.38;;;;;;;15.98;32.85;101410.31;5013643;28;20065;-85
2022/04/22 11:39:20;;;;;;;2.63;1.17;;;;;;;16.00;33.28;101410.00;5026043;28;20503;-86
2022/04/22 11:42:00;;;;;;;2.28;0.98;;;;;;;15.96;33.14;101415.28;5032460;28;20037;-83
2022/04/22 11:44:30;;;;;;;18.42;1.50;;;;;;;15.96;32.48;101409.75;5020526;28;20065;-83
2022/04/22 11:47:00;;;;;;;4.20;1.40;;;;;;;15.92;32.53;101408.72;5025991;28;20033;-84
2022/04/22 11:49:31;;;;;;;2.63;1.50;;;;;;;15.86;32.38;101415.44;5045953;28;20105;-84
2022/04/22 11:51:57;;;;;;;6.75;1.90;;;;;;;15.81;32.75;101412.75;5045944;28;20061;-85
2022/04/22 11:54:26;;;;;;;2.63;1.02;;;;;;;15.80;32.10;101404.75;5012565;28;20099;-84
2022/04/22 11:56:52;;;;;;;2.85;1.10;;;;;;;15.75;32.52;101402.84;5011451;28;20069;-84
2022/04/22 11:59:21;;;;;;;3.05;1.10;;;;;;;15.73;32.36;101401.50;5012192;28;20091;-84
2022/04/22 12:10:03;;;;;;;2.42;1.10;;;;;;;15.69;32.35;101398.53;5034059;28;20044;-84
2022/04/22 12:12:31;;;;;;;4.13;1.33;;;;;;;15.69;31.95;101393.00;5033106;28;20037;-84
2022/04/22 12:15:05;;;;;;;2.80;1.05;;;;;;;15.72;32.09;101389.63;5030768;28;20048;-84
2022/04/22 12:17:31;;;;;;;2.78;1.00;;;;;;;15.71;32.03;101385.22;5032050;28;20072;-83
2022/04/22 12:19:57;;;;;;;2.08;1.02;;;;;;;15.70;32.13;101388.28;5032026;28;20491;-83
2022/04/22 12:22:24;;;;;;;3.38;1.33;;;;;;;15.70;32.95;101380.81;5031001;28;20118;-84
2022/04/22 12:25:10;;;;;;;2.10;0.88;;;;;;;15.80;32.41;101375.13;5031447;28;20037;-86
2022/04/22 12:27:37;;;;;;;6.25;1.08;;;;;;;15.79;32.66;101379.00;5027389;28;20072;-84
2022/04/22 12:30:08;;;;;;;2.85;1.02;;;;;;;15.83;32.19;101370.94;5030568;28;20446;-84